createdAt,value
2019-02-14T00:00:00.535Z,99505.11
2019-02-14T00:02:32.115Z,99515.81
2019-02-14T00:05:04.355Z,99526.02
2019-02-14T00:07:36.902Z,99533.23
2019-02-14T00:10:08.485Z,99544.70
2019-02-14T00:12:39.794Z,99544.33
2019-02-14T00:15:11.652Z,99540.45
2019-02-14T00:17:43.357Z,99559.66
2019-02-14T00:20:14.993Z,99568.16
2019-02-14T00:22:46.260Z,99564.59
2019-02-14T00:25:17.939Z,99559.52
2019-02-14T00:27:49.889Z,99563.11
2019-02-14T00:30:21.347Z,99591.45
2019-02-14T00:32:52.972Z,99591.45
2019-02-14T00:35:25.306Z,99574.87
2019-02-14T00:37:56.870Z,99574.87
2019-02-14T00:40:27.987Z,99593.16
2019-02-14T00:42:59.251Z,99591.05
2019-02-14T00:45:30.725Z,99591.05
2019-02-14T00:48:02.363Z,99598.48
2019-02-14T00:50:33.925Z,99602.41
2019-02-14T00:53:05.128Z,99597.08
2019-02-14T00:55:36.493Z,99616.75
2019-02-14T00:58:08.580Z,99616.75
2019-02-14T01:00:41.113Z,99622.49
2019-02-14T01:03:12.860Z,99609.83
2019-02-14T01:05:44.188Z,99627.67
2019-02-14T01:08:15.631Z,99639.86
2019-02-14T01:10:46.964Z,99639.86
2019-02-14T01:13:18.248Z,99623.83
2019-02-14T01:15:49.634Z,99638.86
2019-02-14T01:18:21.076Z,99638.86
2019-02-14T01:20:52.541Z,99614.31
2019-02-14T01:23:23.693Z,99614.31
2019-02-14T01:25:54.828Z,99640.83
2019-02-14T01:28:25.972Z,99651.73
2019-02-14T01:30:57.031Z,99625.38
2019-02-14T01:33:28.261Z,99610.41
2019-02-14T01:35:59.946Z,99605.41
2019-02-14T01:38:31.557Z,99605.41
2019-02-14T01:41:02.963Z,99605.83
2019-02-14T01:43:34.484Z,99605.83
2019-02-14T01:46:05.937Z,99619.95
2019-02-14T01:48:37.220Z,99618.20
2019-02-14T01:51:08.510Z,99635.80
2019-02-14T01:53:39.710Z,99635.80
2019-02-14T01:56:11.111Z,99637.79
2019-02-14T01:58:42.709Z,99637.79
2019-02-14T02:01:14.297Z,99647.95
2019-02-14T02:03:45.806Z,99653.02
2019-02-14T02:06:17.252Z,99651.56
2019-02-14T02:08:49.187Z,99655.14
2019-02-14T02:11:20.681Z,99660.63
2019-02-14T02:13:52.398Z,99660.63
2019-02-14T02:16:24.398Z,99652.83
2019-02-14T02:18:55.739Z,99674.88
2019-02-14T02:21:27.418Z,99674.88
2019-02-14T02:23:58.745Z,99679.06
2019-02-14T02:26:30.555Z,99675.80
2019-02-14T02:29:02.978Z,99676.36
2019-02-14T02:31:34.732Z,99685.77
2019-02-14T02:34:06.217Z,99685.77
2019-02-14T02:36:37.555Z,99675.75
2019-02-14T02:39:09.747Z,99675.75
2019-02-14T02:41:41.798Z,99677.62
2019-02-14T02:44:13.111Z,99677.62
2019-02-14T02:46:44.747Z,99693.91
2019-02-14T02:49:15.930Z,99703.20
2019-02-14T02:51:47.450Z,99698.78
2019-02-14T02:54:18.711Z,99698.78
2019-02-14T02:56:51.656Z,99706.00
2019-02-14T02:59:23.497Z,99702.09
2019-02-14T03:01:55.287Z,99701.55
2019-02-14T03:04:26.939Z,99697.86
2019-02-14T03:06:58.496Z,99697.86
2019-02-14T03:09:29.822Z,99704.05
2019-02-14T03:12:01.422Z,99704.05
2019-02-14T03:14:33.886Z,99728.93
2019-02-14T03:17:05.225Z,99727.09
2019-02-14T03:19:37.899Z,99727.09
2019-02-14T03:22:09.401Z,99714.62
2019-02-14T03:24:40.764Z,99715.66
2019-02-14T03:27:12.083Z,99703.25
2019-02-14T03:29:43.532Z,99705.08
2019-02-14T03:32:15.304Z,99705.08
2019-02-14T03:34:46.640Z,99722.11
2019-02-14T03:37:18.355Z,99722.11
2019-02-14T03:39:50.549Z,99744.15
2019-02-14T03:42:22.458Z,99732.93
2019-02-14T03:44:53.797Z,99732.93
2019-02-14T03:47:24.939Z,99724.96
2019-02-14T03:49:56.505Z,99761.03
2019-02-14T03:52:28.387Z,99730.45
2019-02-14T03:54:59.655Z,99720.23
2019-02-14T03:57:31.066Z,99719.77
2019-02-14T04:00:02.416Z,99719.77
2019-02-14T04:02:35.559Z,99727.39
2019-02-14T04:05:07.144Z,99717.06
2019-02-14T04:07:38.702Z,99717.06
2019-02-14T04:10:11.310Z,99719.86
2019-02-14T04:12:43.488Z,99707.68
2019-02-14T04:15:15.921Z,99684.12
2019-02-14T04:17:47.793Z,99691.77
2019-02-14T04:20:18.832Z,99701.33
2019-02-14T04:22:50.417Z,99701.08
2019-02-14T04:25:22.034Z,99706.85
2019-02-14T04:27:54.395Z,99713.55
2019-02-14T04:30:25.673Z,99713.55
2019-02-14T04:32:57.129Z,99746.19
2019-02-14T04:35:29.025Z,99746.19
2019-02-14T04:38:00.279Z,99829.06
2019-02-14T04:40:33.612Z,99805.70
2019-02-14T04:43:05.335Z,99814.91
2019-02-14T04:45:37.075Z,99820.80
2019-02-14T04:48:08.336Z,99820.80
2019-02-14T04:50:39.911Z,99819.22
2019-02-14T04:53:11.512Z,99819.22
2019-02-14T04:55:43.056Z,99818.28
2019-02-14T04:58:15.749Z,99818.17
2019-02-14T05:00:46.962Z,99815.39
2019-02-14T05:03:18.499Z,99825.45
2019-02-14T05:05:49.666Z,99825.05
2019-02-14T05:08:21.456Z,99840.06
2019-02-14T05:10:52.744Z,99840.06
2019-02-14T05:13:24.294Z,99840.22
2019-02-14T05:15:55.453Z,99849.58
2019-02-14T05:18:28.316Z,99853.95
2019-02-14T05:20:59.399Z,99853.95
2019-02-14T05:23:31.026Z,99863.56
2019-02-14T05:26:02.077Z,99862.95
2019-02-14T05:28:33.610Z,99857.74
2019-02-14T05:31:04.810Z,99857.74
2019-02-14T05:33:37.533Z,99866.36
2019-02-14T05:36:08.926Z,99855.66
2019-02-14T05:38:41.161Z,99855.66
2019-02-14T05:41:12.651Z,99859.95
2019-02-14T05:43:43.967Z,99855.13
2019-02-14T05:46:15.237Z,99853.69
2019-02-14T05:48:46.744Z,99841.03
2019-02-14T05:51:18.259Z,99841.03
2019-02-14T05:53:49.549Z,99844.14
2019-02-14T05:56:20.879Z,99830.98
2019-02-14T05:58:52.263Z,99838.00
2019-02-14T06:01:24.080Z,99821.41
2019-02-14T06:03:55.632Z,99821.41
2019-02-14T06:06:28.841Z,99809.25
2019-02-14T06:09:00.546Z,99812.83
2019-02-14T06:11:32.070Z,99800.09
2019-02-14T06:14:03.367Z,99794.64
2019-02-14T06:16:34.760Z,99794.64
2019-02-14T06:19:06.139Z,99782.94
2019-02-14T06:21:37.544Z,99782.94
2019-02-14T06:24:09.019Z,99797.13
2019-02-14T06:26:40.421Z,99790.50
2019-02-14T06:29:11.997Z,99790.50
2019-02-14T06:31:43.510Z,99781.11
2019-02-14T06:34:14.823Z,99777.86
2019-02-14T06:36:46.123Z,99776.11
2019-02-14T06:39:17.993Z,99767.33
2019-02-14T06:41:49.494Z,99749.73
2019-02-14T06:44:20.945Z,99753.34
2019-02-14T06:46:52.294Z,99753.34
2019-02-14T06:49:23.538Z,99721.06
2019-02-14T06:51:54.881Z,99721.06
2019-02-14T06:54:26.203Z,99710.47
2019-02-14T06:56:57.331Z,99713.15
2019-02-14T06:59:28.674Z,99710.69
2019-02-14T07:02:00.215Z,99690.39
2019-02-14T07:04:31.556Z,99686.68
2019-02-14T07:07:02.793Z,99686.68
2019-02-14T07:09:34.524Z,99685.05
2019-02-14T07:12:06.174Z,99698.84
2019-02-14T07:14:37.456Z,99669.52
2019-02-14T07:17:09.792Z,99669.52
2019-02-14T07:19:41.082Z,99673.27
2019-02-14T07:22:12.252Z,99668.03
2019-02-14T07:24:43.604Z,99652.03
2019-02-14T07:27:15.037Z,99656.42
2019-02-14T07:29:46.528Z,99656.42
2019-02-14T07:32:18.186Z,99674.16
2019-02-14T07:34:49.610Z,99656.88
2019-02-14T07:37:26.523Z,99656.88
2019-02-14T07:39:54.111Z,99647.47
2019-02-14T07:42:25.769Z,99638.80
2019-02-14T07:44:57.719Z,99642.94
2019-02-14T07:47:29.227Z,99643.16
2019-02-14T07:50:00.567Z,99636.53
2019-02-14T07:52:31.822Z,99635.53
2019-02-14T07:55:03.262Z,99635.53
2019-02-14T07:57:34.593Z,99617.74
2019-02-14T08:00:07.097Z,99607.41
2019-02-14T08:02:38.813Z,99597.71
2019-02-14T08:05:10.381Z,99603.58
2019-02-14T08:07:42.034Z,99601.88
2019-02-14T08:10:14.861Z,99598.33
2019-02-14T08:12:46.346Z,99582.45
2019-02-14T08:15:17.733Z,99576.41
2019-02-14T08:17:49.463Z,99574.31
2019-02-14T08:20:20.876Z,99574.31
2019-02-14T08:22:52.286Z,99578.70
2019-02-14T08:25:23.545Z,99578.70
2019-02-14T08:27:55.341Z,99564.16
2019-02-14T08:30:26.627Z,99561.15
2019-02-14T08:32:58.301Z,99556.69
2019-02-14T08:35:29.547Z,99556.69
2019-02-14T08:38:00.955Z,99543.92
2019-02-14T08:40:32.451Z,99542.61
2019-02-14T08:43:03.973Z,99545.97
2019-02-14T08:45:35.329Z,99534.39
2019-02-14T08:48:07.869Z,99532.70
2019-02-14T08:50:39.250Z,99522.26
2019-02-14T08:53:10.574Z,99522.26
2019-02-14T08:55:42.223Z,99523.69
2019-02-14T08:58:13.563Z,99523.69
2019-02-14T09:00:44.846Z,99510.52
2019-02-14T09:03:16.261Z,99510.52
2019-02-14T09:05:47.994Z,99535.48
2019-02-14T09:08:19.283Z,99535.48
2019-02-14T09:10:50.666Z,99508.88
2019-02-14T09:13:22.281Z,99513.27
2019-02-14T09:15:53.691Z,99513.27
2019-02-14T09:18:25.482Z,99524.22
2019-02-14T09:20:56.965Z,99509.23
2019-02-14T09:23:28.751Z,99509.23
2019-02-14T09:26:02.404Z,99507.05
2019-02-14T09:28:34.009Z,99507.05
2019-02-14T09:31:05.663Z,99506.21
2019-02-14T09:33:37.326Z,99500.61
2019-02-14T09:36:09.046Z,99495.28
2019-02-14T09:38:41.540Z,99487.41
2019-02-14T09:41:13.889Z,99487.41
2019-02-14T09:43:46.086Z,99500.06
2019-02-14T09:46:18.547Z,99490.03
2019-02-14T09:48:50.124Z,99490.03
2019-02-14T09:51:21.564Z,99483.77
2019-02-14T09:53:52.742Z,99483.91
2019-02-14T09:56:24.550Z,99483.73
2019-02-14T09:58:55.953Z,99478.98
2019-02-14T10:01:27.454Z,99478.98
2019-02-14T10:03:59.069Z,99477.96
2019-02-14T10:06:36.747Z,99477.96
2019-02-14T10:09:05.652Z,99466.14
2019-02-14T10:11:37.367Z,99474.45
2019-02-14T10:14:08.682Z,99474.45
2019-02-14T10:16:40.800Z,99461.27
2019-02-14T10:19:12.158Z,99461.27
2019-02-14T10:21:43.536Z,99456.11
2019-02-14T10:24:14.927Z,99452.86
2019-02-14T10:26:46.310Z,99448.83
2019-02-14T10:29:17.522Z,99448.83
2019-02-14T10:31:48.763Z,99451.84
2019-02-14T10:34:20.118Z,99451.25
2019-02-14T10:36:51.298Z,99451.25
2019-02-14T10:39:22.809Z,99445.53
2019-02-14T10:41:54.329Z,99445.53
2019-02-14T10:44:25.615Z,99441.22
2019-02-14T10:46:57.333Z,99450.06
2019-02-14T10:49:28.793Z,99455.58
2019-02-14T10:52:00.349Z,99439.36
2019-02-14T10:54:32.149Z,99439.36
2019-02-14T10:57:03.541Z,99436.09
2019-02-14T10:59:34.957Z,99444.77
2019-02-14T11:02:07.212Z,99444.77
2019-02-14T11:04:38.865Z,99435.03
2019-02-14T11:07:10.457Z,99435.03
2019-02-14T11:09:43.258Z,99439.34
2019-02-14T11:12:14.733Z,99454.14
2019-02-14T11:14:46.248Z,99439.16
2019-02-14T11:17:18.181Z,99439.16
2019-02-14T11:19:49.420Z,99431.08
2019-02-14T11:22:21.470Z,99436.52
2019-02-14T11:24:53.330Z,99436.52
2019-02-14T11:27:24.961Z,99437.84
2019-02-14T11:29:56.688Z,99441.19
2019-02-14T11:32:28.323Z,99452.94
2019-02-14T11:35:00.030Z,99452.94
2019-02-14T11:37:31.579Z,99447.52
2019-02-14T11:40:03.231Z,99441.97
2019-02-14T11:42:35.000Z,99441.97
2019-02-14T11:45:06.827Z,99440.94
2019-02-14T11:47:42.267Z,99440.94
2019-02-14T11:50:17.370Z,99455.05
2019-02-14T11:52:48.897Z,99458.52
2019-02-14T11:55:20.520Z,99458.52
2019-02-14T11:57:51.909Z,99457.21
2019-02-14T12:00:24.939Z,99469.91
2019-02-14T12:02:56.697Z,99467.83
2019-02-14T12:05:27.879Z,99479.05
2019-02-14T12:07:59.262Z,99479.05
2019-02-14T12:10:32.046Z,99483.91
2019-02-14T12:13:03.718Z,99481.87
2019-02-14T12:15:35.323Z,99492.89
2019-02-14T12:18:07.083Z,99489.73
2019-02-14T12:20:38.683Z,99489.85
2019-02-14T12:23:10.465Z,99501.19
2019-02-14T12:25:41.934Z,99511.78
2019-02-14T12:28:13.515Z,99511.78
2019-02-14T12:30:45.325Z,99514.59
2019-02-14T12:33:16.567Z,99514.59
2019-02-14T12:35:47.805Z,99515.48
2019-02-14T12:38:19.731Z,99515.48
2019-02-14T12:40:51.442Z,99526.16
2019-02-14T12:43:22.891Z,99526.16
2019-02-14T12:45:54.369Z,99529.81
2019-02-14T12:48:26.049Z,99529.81
2019-02-14T12:50:57.421Z,99530.09
2019-02-14T12:53:29.091Z,99526.30
2019-02-14T12:56:00.769Z,99531.50
2019-02-14T12:58:32.436Z,99531.50
2019-02-14T13:01:04.091Z,99535.84
2019-02-14T13:03:35.784Z,99534.42
2019-02-14T13:06:07.300Z,99532.65
2019-02-14T13:08:38.624Z,99537.27
2019-02-14T13:11:10.097Z,99541.74
2019-02-14T13:13:41.747Z,99535.91
2019-02-14T13:16:13.488Z,99543.92
2019-02-14T13:18:45.109Z,99545.39
2019-02-14T13:21:16.968Z,99545.39
2019-02-14T13:23:48.643Z,99551.20
2019-02-14T13:26:20.439Z,99559.80
2019-02-14T13:28:52.186Z,99560.56
2019-02-14T13:31:31.573Z,99569.73
2019-02-14T13:33:57.027Z,99564.73
2019-02-14T13:36:28.933Z,99564.73
2019-02-14T13:39:00.333Z,99567.13
2019-02-14T13:41:34.026Z,99569.60
2019-02-14T13:44:05.284Z,99563.42
2019-02-14T13:46:36.827Z,99559.04
2019-02-14T13:49:08.324Z,99573.23
2019-02-14T13:51:39.781Z,99571.85
2019-02-14T13:54:11.262Z,99571.85
2019-02-14T13:56:42.941Z,99579.78
2019-02-14T13:59:14.517Z,99579.78
2019-02-14T14:01:46.202Z,99577.09
2019-02-14T14:04:17.773Z,99576.18
2019-02-14T14:06:49.552Z,99571.16
2019-02-14T14:09:21.058Z,99571.16
2019-02-14T14:11:54.486Z,99576.02
2019-02-14T14:14:25.742Z,99575.72
2019-02-14T14:16:57.937Z,99579.88
2019-02-14T14:19:30.487Z,99574.34
2019-02-14T14:22:02.311Z,99570.64
2019-02-14T14:24:33.534Z,99568.41
2019-02-14T14:27:05.158Z,99573.90
2019-02-14T14:29:36.702Z,99573.44
2019-02-14T14:32:08.375Z,99573.44
2019-02-14T14:34:39.678Z,99571.14
2019-02-14T14:37:11.076Z,99581.44
2019-02-14T14:39:47.855Z,99576.52
2019-02-14T14:42:34.254Z,99581.05
2019-02-14T14:45:07.240Z,99586.73
2019-02-14T14:47:38.804Z,99589.59
2019-02-14T14:50:10.293Z,99589.07
2019-02-14T14:52:41.614Z,99587.06
2019-02-14T14:55:13.262Z,99587.06
2019-02-14T14:57:44.634Z,99588.68
2019-02-14T15:00:16.155Z,99585.00
2019-02-14T15:02:47.722Z,99581.61
2019-02-14T15:05:19.448Z,99581.91
2019-02-14T15:07:50.980Z,99590.60
2019-02-14T15:10:22.293Z,99590.60
2019-02-14T15:12:53.889Z,99598.44
2019-02-14T15:15:25.846Z,99601.39
2019-02-14T15:17:57.527Z,99607.34
2019-02-14T15:20:29.626Z,99611.75
2019-02-14T15:23:01.358Z,99611.75
2019-02-14T15:25:32.820Z,99622.31
2019-02-14T15:28:04.006Z,99622.31
2019-02-14T15:30:35.275Z,99620.98
2019-02-14T15:33:06.804Z,99624.34
2019-02-14T15:35:38.044Z,99628.85
2019-02-14T15:38:11.400Z,99615.55
2019-02-14T15:40:43.094Z,99625.75
2019-02-14T15:43:14.598Z,99625.75
2019-02-14T15:45:46.156Z,99622.68
2019-02-14T15:48:17.883Z,99626.63
2019-02-14T15:50:51.192Z,99633.48
2019-02-14T15:53:22.368Z,99632.75
2019-02-14T15:55:53.946Z,99617.06
2019-02-14T15:58:25.940Z,99617.06
2019-02-14T16:00:58.408Z,99622.11
2019-02-14T16:03:30.063Z,99607.75
2019-02-14T16:06:02.254Z,99606.42
2019-02-14T16:08:34.724Z,99606.42
2019-02-14T16:11:06.342Z,99607.75
2019-02-14T16:13:37.862Z,99612.20
2019-02-14T16:16:10.011Z,99609.22
2019-02-14T16:18:41.379Z,99609.22
2019-02-14T16:21:13.104Z,99611.38
2019-02-14T16:23:44.566Z,99605.20
2019-02-14T16:26:17.135Z,99606.06
2019-02-14T16:28:48.632Z,99606.06
2019-02-14T16:31:20.325Z,99604.06
2019-02-14T16:33:51.922Z,99604.06
2019-02-14T16:36:23.924Z,99609.75
2019-02-14T16:38:56.423Z,99609.75
2019-02-14T16:41:28.264Z,99609.97
2019-02-14T16:44:00.046Z,99613.64
2019-02-14T16:46:31.488Z,99609.85
2019-02-14T16:49:02.927Z,99612.36
2019-02-14T16:51:34.537Z,99615.81
2019-02-14T16:54:06.286Z,99615.81
2019-02-14T16:56:37.850Z,99617.43
2019-02-14T16:59:09.506Z,99617.43
2019-02-14T17:01:40.823Z,99621.67
2019-02-14T17:04:12.703Z,99621.91
2019-02-14T17:06:43.935Z,99624.72
2019-02-14T17:09:15.335Z,99616.94
2019-02-14T17:11:46.855Z,99611.78
2019-02-14T17:14:18.523Z,99611.78
2019-02-14T17:16:50.291Z,99619.00
2019-02-14T17:19:21.701Z,99612.20
2019-02-14T17:21:53.100Z,99603.49
2019-02-14T17:24:24.852Z,99604.57
2019-02-14T17:26:56.258Z,99604.57
2019-02-14T17:29:27.772Z,99604.73
2019-02-14T17:31:59.258Z,99609.32
2019-02-14T17:34:30.699Z,99607.09
2019-02-14T17:37:02.345Z,99606.73
2019-02-14T17:39:34.766Z,99606.73
2019-02-14T17:42:06.701Z,99595.56
2019-02-14T17:44:38.625Z,99597.83
2019-02-14T17:47:10.079Z,99597.83
2019-02-14T17:49:41.374Z,99622.73
2019-02-14T17:52:12.720Z,99622.73
2019-02-14T17:54:44.039Z,99625.84
2019-02-14T17:57:15.398Z,99625.84
2019-02-14T17:59:46.724Z,99626.13
2019-02-14T18:02:18.650Z,99626.13
2019-02-14T18:04:50.110Z,99621.12
2019-02-14T18:07:21.434Z,99622.91
2019-02-14T18:09:52.714Z,99621.25
2019-02-14T18:12:23.898Z,99621.25
2019-02-14T18:14:55.244Z,99616.28
2019-02-14T18:17:26.571Z,99608.18
2019-02-14T18:19:58.154Z,99607.63
2019-02-14T18:22:29.463Z,99601.79
2019-02-14T18:25:01.073Z,99601.27
2019-02-14T18:27:32.632Z,99593.25
2019-02-14T18:30:04.078Z,99593.25
2019-02-14T18:32:36.037Z,99590.14
2019-02-14T18:35:09.371Z,99596.11
2019-02-14T18:37:41.851Z,99598.04
2019-02-14T18:40:13.594Z,99604.71
2019-02-14T18:42:45.284Z,99609.06
2019-02-14T18:45:17.066Z,99613.96
2019-02-14T18:47:48.256Z,99612.37
2019-02-14T18:50:19.841Z,99612.37
2019-02-14T18:52:51.205Z,99608.53
2019-02-14T18:55:22.447Z,99608.53
2019-02-14T18:57:53.652Z,99610.69
2019-02-14T19:00:25.534Z,99605.86
2019-02-14T19:02:57.175Z,99595.38
2019-02-14T19:05:28.547Z,99600.98
2019-02-14T19:08:00.221Z,99600.98
2019-02-14T19:10:33.193Z,99600.59
2019-02-14T19:13:04.496Z,99604.86
2019-02-14T19:15:36.119Z,99605.52
2019-02-14T19:18:07.542Z,99607.39
2019-02-14T19:20:38.926Z,99606.73
2019-02-14T19:23:10.346Z,99606.73
2019-02-14T19:25:41.685Z,99610.45
2019-02-14T19:28:12.869Z,99608.99
2019-02-14T19:30:44.211Z,99612.75
2019-02-14T19:33:15.350Z,99613.02
2019-02-14T19:35:46.625Z,99615.52
2019-02-14T19:38:17.919Z,99619.19
2019-02-14T19:40:49.795Z,99622.78
2019-02-14T19:43:20.952Z,99624.56
2019-02-14T19:45:52.459Z,99624.56
2019-02-14T19:48:23.635Z,99631.17
2019-02-14T19:50:55.056Z,99630.80
2019-02-14T19:53:26.426Z,99640.41
2019-02-14T19:55:57.925Z,99634.70
2019-02-14T19:58:29.326Z,99636.97
2019-02-14T20:01:00.773Z,99631.68
2019-02-14T20:03:32.214Z,99635.80
2019-02-14T20:06:03.984Z,99626.74
2019-02-14T20:08:35.898Z,99626.74
2019-02-14T20:11:07.593Z,99616.17
2019-02-14T20:13:38.778Z,99616.17
2019-02-14T20:16:10.103Z,99626.22
2019-02-14T20:18:41.253Z,99624.80
2019-02-14T20:21:12.879Z,99622.73
2019-02-14T20:23:44.148Z,99613.59
2019-02-14T20:26:15.500Z,99613.59
2019-02-14T20:28:47.023Z,99613.88
2019-02-14T20:31:18.382Z,99611.58
2019-02-14T20:33:49.818Z,99611.58
2019-02-14T20:36:21.073Z,99608.47
2019-02-14T20:38:52.649Z,99608.23
2019-02-14T20:41:23.973Z,99603.42
2019-02-14T20:43:55.535Z,99599.88
2019-02-14T20:46:27.052Z,99599.88
2019-02-14T20:48:59.764Z,99611.92
2019-02-14T20:51:38.366Z,99611.92
2019-02-14T20:54:04.034Z,99607.67
2019-02-14T20:56:35.240Z,99607.67
2019-02-14T20:59:06.862Z,99598.71
2019-02-14T21:01:38.036Z,99598.71
2019-02-14T21:04:09.407Z,99593.05
2019-02-14T21:06:40.700Z,99592.69
2019-02-14T21:09:13.082Z,99577.91
2019-02-14T21:11:44.260Z,99575.41
2019-02-14T21:14:15.593Z,99575.41
2019-02-14T21:16:46.966Z,99572.46
2019-02-14T21:19:18.575Z,99570.91
2019-02-14T21:21:50.383Z,99567.94
2019-02-14T21:24:21.803Z,99567.94
2019-02-14T21:26:53.351Z,99572.19
2019-02-14T21:29:24.468Z,99572.19
2019-02-14T21:31:55.969Z,99566.14
2019-02-14T21:34:27.439Z,99570.14
2019-02-14T21:36:58.506Z,99559.02
2019-02-14T21:39:30.136Z,99556.58
2019-02-14T21:42:18.816Z,99552.30
2019-02-14T21:44:34.304Z,99552.30
2019-02-14T21:47:05.823Z,99546.73
2019-02-14T21:49:37.211Z,99538.63
2019-02-14T21:52:08.505Z,99538.59
2019-02-14T21:54:39.761Z,99539.64
2019-02-14T21:57:11.255Z,99539.64
2019-02-14T21:59:43.898Z,99546.95
2019-02-14T22:02:15.294Z,99549.01
2019-02-14T22:04:47.249Z,99539.92
2019-02-14T22:07:18.793Z,99535.11
2019-02-14T22:09:50.247Z,99535.11
2019-02-14T22:12:38.254Z,99532.36
2019-02-14T22:14:54.503Z,99532.83
2019-02-14T22:17:26.136Z,99533.06
2019-02-14T22:19:57.602Z,99530.16
2019-02-14T22:22:29.031Z,99523.24
2019-02-14T22:25:00.310Z,99528.82
2019-02-14T22:27:31.470Z,99528.82
2019-02-14T22:30:03.175Z,99519.70
2019-02-14T22:32:36.014Z,99520.09
2019-02-14T22:35:07.653Z,99520.20
2019-02-14T22:37:39.268Z,99527.11
2019-02-14T22:40:10.741Z,99527.11
2019-02-14T22:42:47.081Z,99517.51
2019-02-14T22:45:16.275Z,99504.48
2019-02-14T22:47:47.541Z,99511.73
2019-02-14T22:50:18.824Z,99511.73
2019-02-14T22:52:50.031Z,99530.35
2019-02-14T22:55:21.299Z,99523.01
2019-02-14T22:57:52.568Z,99518.91
2019-02-14T23:00:47.677Z,99518.91
2019-02-14T23:03:21.245Z,99520.86
2019-02-14T23:05:52.376Z,99524.23
2019-02-14T23:08:24.406Z,99522.23
2019-02-14T23:10:55.825Z,99517.72
2019-02-14T23:13:27.156Z,99519.33
2019-02-14T23:15:58.570Z,99511.68
2019-02-14T23:18:29.984Z,99511.68
2019-02-14T23:21:01.440Z,99526.36
2019-02-14T23:23:32.458Z,99526.36
2019-02-14T23:26:03.870Z,99527.60
2019-02-14T23:28:35.362Z,99527.44
2019-02-14T23:31:06.654Z,99527.44
2019-02-14T23:33:38.045Z,99528.62
2019-02-14T23:36:09.350Z,99528.62
2019-02-14T23:38:40.640Z,99532.62
2019-02-14T23:41:11.861Z,99533.89
2019-02-14T23:43:43.084Z,99526.54
2019-02-14T23:46:14.629Z,99523.41
2019-02-14T23:48:46.057Z,99523.41
2019-02-14T23:51:17.562Z,99528.16
2019-02-14T23:53:48.786Z,99533.45
2019-02-14T23:56:20.631Z,99537.01
2019-02-14T23:58:51.888Z,99537.01
